sensor_id;sensor_type;location;lat;lon;timestamp;P1;durP1;ratioP1;P2;durP2;ratioP2
82950;SDS011;72737;53.332;6.514;2024-01-07T00:01:00;29.85;;;20.52;;
82950;SDS011;72737;53.332;6.514;2024-01-07T00:03:25;28.70;;;19.55;;
82950;SDS011;72737;53.332;6.514;2024-01-07T00:05:51;25.42;;;18.52;;
82950;SDS011;72737;53.332;6.514;2024-01-07T00:08:16;27.40;;;18.70;;
82950;SDS011;72737;53.332;6.514;2024-01-07T00:10:42;27.98;;;20.00;;
82950;SDS011;72737;53.332;6.514;2024-01-07T00:13:07;25.25;;;18.40;;
82950;SDS011;72737;53.332;6.514;2024-01-07T00:15:32;24.15;;;17.85;;
82950;SDS011;72737;53.332;6.514;2024-01-07T00:17:58;23.67;;;17.77;;
82950;SDS011;72737;53.332;6.514;2024-01-07T00:20:23;20.83;;;16.42;;
82950;SDS011;72737;53.332;6.514;2024-01-07T00:22:49;25.08;;;18.65;;
82950;SDS011;72737;53.332;6.514;2024-01-07T00:25:14;21.40;;;15.75;;
82950;SDS011;72737;53.332;6.514;2024-01-07T00:27:39;22.00;;;15.73;;
82950;SDS011;72737;53.332;6.514;2024-01-07T00:30:05;22.50;;;16.05;;
82950;SDS011;72737;53.332;6.514;2024-01-07T00:32:31;23.08;;;14.65;;
82950;SDS011;72737;53.332;6.514;2024-01-07T00:34:56;18.23;;;15.32;;
82950;SDS011;72737;53.332;6.514;2024-01-07T00:37:21;20.13;;;14.32;;
82950;SDS011;72737;53.332;6.514;2024-01-07T00:39:47;19.02;;;15.00;;
82950;SDS011;72737;53.332;6.514;2024-01-07T00:42:12;20.05;;;14.02;;
82950;SDS011;72737;53.332;6.514;2024-01-07T00:44:38;17.27;;;13.02;;
82950;SDS011;72737;53.332;6.514;2024-01-07T00:47:03;15.63;;;12.40;;
82950;SDS011;72737;53.332;6.514;2024-01-07T00:49:28;20.08;;;13.13;;
82950;SDS011;72737;53.332;6.514;2024-01-07T00:51:54;17.70;;;12.10;;
82950;SDS011;72737;53.332;6.514;2024-01-07T00:54:19;15.85;;;12.73;;
82950;SDS011;72737;53.332;6.514;2024-01-07T00:56:45;20.27;;;11.75;;
82950;SDS011;72737;53.332;6.514;2024-01-07T00:59:10;14.90;;;10.80;;
82950;SDS011;72737;53.332;6.514;2024-01-07T01:01:36;18.98;;;11.95;;
82950;SDS011;72737;53.332;6.514;2024-01-07T01:04:01;15.70;;;11.23;;
82950;SDS011;72737;53.332;6.514;2024-01-07T01:06:26;15.23;;;10.65;;
82950;SDS011;72737;53.332;6.514;2024-01-07T01:08:52;15.63;;;11.02;;
82950;SDS011;72737;53.332;6.514;2024-01-07T01:11:17;15.45;;;9.88;;
82950;SDS011;72737;53.332;6.514;2024-01-07T01:13:42;16.30;;;10.35;;
82950;SDS011;72737;53.332;6.514;2024-01-07T01:16:08;15.10;;;9.88;;
82950;SDS011;72737;53.332;6.514;2024-01-07T01:18:33;13.57;;;9.40;;
82950;SDS011;72737;53.332;6.514;2024-01-07T01:20:59;12.52;;;9.23;;
82950;SDS011;72737;53.332;6.514;2024-01-07T01:23:24;12.35;;;8.57;;
82950;SDS011;72737;53.332;6.514;2024-01-07T01:25:49;11.25;;;8.50;;
82950;SDS011;72737;53.332;6.514;2024-01-07T01:28:15;11.48;;;8.38;;
82950;SDS011;72737;53.332;6.514;2024-01-07T01:30:40;12.88;;;8.75;;
82950;SDS011;72737;53.332;6.514;2024-01-07T01:33:06;11.60;;;8.68;;
82950;SDS011;72737;53.332;6.514;2024-01-07T01:35:31;10.73;;;8.35;;
82950;SDS011;72737;53.332;6.514;2024-01-07T01:37:57;11.18;;;8.45;;
82950;SDS011;72737;53.332;6.514;2024-01-07T01:40:22;11.55;;;7.50;;
82950;SDS011;72737;53.332;6.514;2024-01-07T01:42:47;12.68;;;8.18;;
82950;SDS011;72737;53.332;6.514;2024-01-07T01:45:13;11.52;;;7.47;;
82950;SDS011;72737;53.332;6.514;2024-01-07T01:47:39;12.30;;;7.03;;
82950;SDS011;72737;53.332;6.514;2024-01-07T01:50:06;9.43;;;6.68;;
82950;SDS011;72737;53.332;6.514;2024-01-07T01:52:32;10.80;;;7.15;;
82950;SDS011;72737;53.332;6.514;2024-01-07T01:54:57;9.38;;;6.35;;
82950;SDS011;72737;53.332;6.514;2024-01-07T01:57:24;10.27;;;6.15;;
82950;SDS011;72737;53.332;6.514;2024-01-07T01:59:57;10.02;;;6.25;;
82950;SDS011;72737;53.332;6.514;2024-01-07T02:02:28;10.77;;;6.38;;
82950;SDS011;72737;53.332;6.514;2024-01-07T02:04:54;9.05;;;6.05;;
82950;SDS011;72737;53.332;6.514;2024-01-07T02:07:20;11.05;;;6.05;;
82950;SDS011;72737;53.332;6.514;2024-01-07T02:09:45;9.32;;;6.53;;
82950;SDS011;72737;53.332;6.514;2024-01-07T02:12:11;9.95;;;6.00;;
82950;SDS011;72737;53.332;6.514;2024-01-07T02:14:37;10.63;;;6.20;;
82950;SDS011;72737;53.332;6.514;2024-01-07T02:17:03;8.23;;;5.75;;
82950;SDS011;72737;53.332;6.514;2024-01-07T02:19:28;7.53;;;5.40;;
82950;SDS011;72737;53.332;6.514;2024-01-07T02:21:53;10.55;;;6.15;;
82950;SDS011;72737;53.332;6.514;2024-01-07T02:24:19;8.30;;;5.35;;
82950;SDS011;72737;53.332;6.514;2024-01-07T02:26:45;10.65;;;5.38;;
82950;SDS011;72737;53.332;6.514;2024-01-07T02:29:10;8.25;;;5.25;;
82950;SDS011;72737;53.332;6.514;2024-01-07T02:31:36;8.40;;;5.45;;
82950;SDS011;72737;53.332;6.514;2024-01-07T02:34:01;8.73;;;5.00;;
82950;SDS011;72737;53.332;6.514;2024-01-07T02:36:26;8.40;;;5.15;;
82950;SDS011;72737;53.332;6.514;2024-01-07T02:38:52;7.30;;;4.28;;
82950;SDS011;72737;53.332;6.514;2024-01-07T02:41:17;7.72;;;4.60;;
82950;SDS011;72737;53.332;6.514;2024-01-07T02:43:43;7.50;;;4.25;;
82950;SDS011;72737;53.332;6.514;2024-01-07T02:46:08;7.18;;;4.15;;
82950;SDS011;72737;53.332;6.514;2024-01-07T02:48:34;8.65;;;4.65;;
82950;SDS011;72737;53.332;6.514;2024-01-07T02:51:00;7.60;;;4.18;;
82950;SDS011;72737;53.332;6.514;2024-01-07T02:53:25;7.13;;;4.13;;
82950;SDS011;72737;53.332;6.514;2024-01-07T02:55:51;6.80;;;4.07;;
82950;SDS011;72737;53.332;6.514;2024-01-07T02:58:16;6.82;;;4.03;;
82950;SDS011;72737;53.332;6.514;2024-01-07T03:00:42;7.60;;;3.83;;
82950;SDS011;72737;53.332;6.514;2024-01-07T03:03:07;7.90;;;4.03;;
82950;SDS011;72737;53.332;6.514;2024-01-07T03:05:32;7.20;;;3.88;;
82950;SDS011;72737;53.332;6.514;2024-01-07T03:07:59;7.70;;;3.60;;
82950;SDS011;72737;53.332;6.514;2024-01-07T03:10:25;6.15;;;3.50;;
82950;SDS011;72737;53.332;6.514;2024-01-07T03:12:51;6.38;;;3.30;;
82950;SDS011;72737;53.332;6.514;2024-01-07T03:15:16;7.30;;;3.55;;
82950;SDS011;72737;53.332;6.514;2024-01-07T03:17:41;5.75;;;3.20;;
82950;SDS011;72737;53.332;6.514;2024-01-07T03:20:08;5.95;;;3.35;;
82950;SDS011;72737;53.332;6.514;2024-01-07T03:22:34;6.57;;;3.10;;
82950;SDS011;72737;53.332;6.514;2024-01-07T03:24:59;5.72;;;3.03;;
82950;SDS011;72737;53.332;6.514;2024-01-07T03:27:25;6.22;;;3.10;;
82950;SDS011;72737;53.332;6.514;2024-01-07T03:29:50;6.63;;;2.90;;
82950;SDS011;72737;53.332;6.514;2024-01-07T03:32:16;5.28;;;2.63;;
82950;SDS011;72737;53.332;6.514;2024-01-07T03:34:42;5.70;;;3.20;;
82950;SDS011;72737;53.332;6.514;2024-01-07T03:37:08;6.45;;;2.85;;
82950;SDS011;72737;53.332;6.514;2024-01-07T03:39:33;6.10;;;2.80;;
82950;SDS011;72737;53.332;6.514;2024-01-07T03:41:58;5.65;;;2.83;;
82950;SDS011;72737;53.332;6.514;2024-01-07T03:44:24;5.72;;;2.90;;
82950;SDS011;72737;53.332;6.514;2024-01-07T03:46:49;5.28;;;2.50;;
82950;SDS011;72737;53.332;6.514;2024-01-07T03:49:16;5.53;;;2.75;;
82950;SDS011;72737;53.332;6.514;2024-01-07T03:51:42;5.80;;;2.55;;
82950;SDS011;72737;53.332;6.514;2024-01-07T03:54:08;6.20;;;2.60;;
82950;SDS011;72737;53.332;6.514;2024-01-07T03:56:34;5.45;;;2.40;;
82950;SDS011;72737;53.332;6.514;2024-01-07T03:58:59;4.75;;;2.45;;
82950;SDS011;72737;53.332;6.514;2024-01-07T04:01:24;4.78;;;2.10;;
82950;SDS011;72737;53.332;6.514;2024-01-07T04:03:50;5.00;;;2.47;;
82950;SDS011;72737;53.332;6.514;2024-01-07T04:06:15;4.57;;;2.25;;
82950;SDS011;72737;53.332;6.514;2024-01-07T04:08:41;4.45;;;2.40;;
82950;SDS011;72737;53.332;6.514;2024-01-07T04:11:06;4.70;;;1.90;;
82950;SDS011;72737;53.332;6.514;2024-01-07T04:13:31;4.53;;;2.10;;
82950;SDS011;72737;53.332;6.514;2024-01-07T04:15:57;4.45;;;2.00;;
82950;SDS011;72737;53.332;6.514;2024-01-07T04:18:22;4.80;;;2.25;;
82950;SDS011;72737;53.332;6.514;2024-01-07T04:20:47;4.97;;;2.13;;
82950;SDS011;72737;53.332;6.514;2024-01-07T04:23:13;4.82;;;2.05;;
82950;SDS011;72737;53.332;6.514;2024-01-07T04:25:38;4.60;;;2.10;;
82950;SDS011;72737;53.332;6.514;2024-01-07T04:30:31;4.20;;;2.00;;
82950;SDS011;72737;53.332;6.514;2024-01-07T04:32:56;6.20;;;2.28;;
82950;SDS011;72737;53.332;6.514;2024-01-07T04:35:22;5.22;;;1.90;;
82950;SDS011;72737;53.332;6.514;2024-01-07T04:37:47;4.82;;;2.10;;
82950;SDS011;72737;53.332;6.514;2024-01-07T04:40:12;4.65;;;1.80;;
82950;SDS011;72737;53.332;6.514;2024-01-07T04:42:38;4.25;;;1.80;;
82950;SDS011;72737;53.332;6.514;2024-01-07T04:45:03;4.10;;;1.58;;
82950;SDS011;72737;53.332;6.514;2024-01-07T04:49:56;4.60;;;1.70;;
82950;SDS011;72737;53.332;6.514;2024-01-07T04:52:22;4.40;;;1.88;;
82950;SDS011;72737;53.332;6.514;2024-01-07T04:54:48;4.43;;;1.63;;
82950;SDS011;72737;53.332;6.514;2024-01-07T04:57:17;3.45;;;1.50;;
82950;SDS011;72737;53.332;6.514;2024-01-07T04:59:42;6.32;;;1.80;;
82950;SDS011;72737;53.332;6.514;2024-01-07T05:02:08;4.00;;;1.75;;
82950;SDS011;72737;53.332;6.514;2024-01-07T05:04:34;5.70;;;2.03;;
82950;SDS011;72737;53.332;6.514;2024-01-07T05:07:00;5.07;;;1.77;;
82950;SDS011;72737;53.332;6.514;2024-01-07T05:09:26;4.70;;;1.80;;
82950;SDS011;72737;53.332;6.514;2024-01-07T05:11:51;4.10;;;1.70;;
82950;SDS011;72737;53.332;6.514;2024-01-07T05:14:16;3.90;;;1.67;;
82950;SDS011;72737;53.332;6.514;2024-01-07T05:16:42;4.63;;;1.90;;
82950;SDS011;72737;53.332;6.514;2024-01-07T05:19:07;4.20;;;1.58;;
82950;SDS011;72737;53.332;6.514;2024-01-07T05:21:32;4.00;;;1.70;;
82950;SDS011;72737;53.332;6.514;2024-01-07T05:23:58;3.47;;;1.50;;
82950;SDS011;72737;53.332;6.514;2024-01-07T05:26:23;3.50;;;1.40;;
82950;SDS011;72737;53.332;6.514;2024-01-07T05:28:48;4.18;;;1.50;;
82950;SDS011;72737;53.332;6.514;2024-01-07T05:31:14;4.03;;;1.50;;
82950;SDS011;72737;53.332;6.514;2024-01-07T05:33:46;3.20;;;1.50;;
82950;SDS011;72737;53.332;6.514;2024-01-07T05:36:12;4.20;;;1.52;;
82950;SDS011;72737;53.332;6.514;2024-01-07T05:38:38;4.75;;;1.52;;
82950;SDS011;72737;53.332;6.514;2024-01-07T05:41:03;3.45;;;1.50;;
82950;SDS011;72737;53.332;6.514;2024-01-07T05:43:29;3.22;;;1.48;;
82950;SDS011;72737;53.332;6.514;2024-01-07T05:45:55;3.00;;;1.30;;
82950;SDS011;72737;53.332;6.514;2024-01-07T05:48:21;5.82;;;1.52;;
82950;SDS011;72737;53.332;6.514;2024-01-07T05:50:47;3.63;;;1.52;;
82950;SDS011;72737;53.332;6.514;2024-01-07T05:53:13;3.22;;;1.42;;
82950;SDS011;72737;53.332;6.514;2024-01-07T05:55:38;3.25;;;1.30;;
82950;SDS011;72737;53.332;6.514;2024-01-07T05:58:04;3.92;;;1.60;;
82950;SDS011;72737;53.332;6.514;2024-01-07T06:00:29;2.95;;;1.35;;
82950;SDS011;72737;53.332;6.514;2024-01-07T06:02:55;4.20;;;1.40;;
82950;SDS011;72737;53.332;6.514;2024-01-07T06:05:20;3.42;;;1.30;;
82950;SDS011;72737;53.332;6.514;2024-01-07T06:07:45;3.08;;;1.40;;
82950;SDS011;72737;53.332;6.514;2024-01-07T06:10:11;4.13;;;1.38;;
82950;SDS011;72737;53.332;6.514;2024-01-07T06:12:36;3.22;;;1.20;;
82950;SDS011;72737;53.332;6.514;2024-01-07T06:15:01;3.17;;;1.30;;
82950;SDS011;72737;53.332;6.514;2024-01-07T06:17:27;3.13;;;1.30;;
82950;SDS011;72737;53.332;6.514;2024-01-07T06:19:52;3.80;;;1.42;;
82950;SDS011;72737;53.332;6.514;2024-01-07T06:22:18;5.18;;;1.35;;
82950;SDS011;72737;53.332;6.514;2024-01-07T06:24:43;2.87;;;1.10;;
82950;SDS011;72737;53.332;6.514;2024-01-07T06:27:08;3.47;;;1.20;;
82950;SDS011;72737;53.332;6.514;2024-01-07T06:29:34;3.58;;;1.20;;
82950;SDS011;72737;53.332;6.514;2024-01-07T06:31:59;3.70;;;1.00;;
82950;SDS011;72737;53.332;6.514;2024-01-07T06:34:24;2.58;;;1.20;;
82950;SDS011;72737;53.332;6.514;2024-01-07T06:36:50;3.65;;;1.20;;
82950;SDS011;72737;53.332;6.514;2024-01-07T06:39:15;2.55;;;1.10;;
82950;SDS011;72737;53.332;6.514;2024-01-07T06:41:41;2.72;;;1.10;;
82950;SDS011;72737;53.332;6.514;2024-01-07T06:44:06;2.75;;;1.00;;
82950;SDS011;72737;53.332;6.514;2024-01-07T06:46:31;2.95;;;1.13;;
82950;SDS011;72737;53.332;6.514;2024-01-07T06:48:59;3.05;;;1.35;;
82950;SDS011;72737;53.332;6.514;2024-01-07T06:51:24;2.97;;;1.00;;
82950;SDS011;72737;53.332;6.514;2024-01-07T06:53:50;2.85;;;1.00;;
82950;SDS011;72737;53.332;6.514;2024-01-07T06:56:15;2.85;;;1.20;;
82950;SDS011;72737;53.332;6.514;2024-01-07T06:58:41;2.92;;;1.20;;
82950;SDS011;72737;53.332;6.514;2024-01-07T07:01:07;2.22;;;1.02;;
82950;SDS011;72737;53.332;6.514;2024-01-07T07:03:33;3.40;;;1.20;;
82950;SDS011;72737;53.332;6.514;2024-01-07T07:05:58;2.72;;;1.20;;
82950;SDS011;72737;53.332;6.514;2024-01-07T07:08:23;4.32;;;1.30;;
82950;SDS011;72737;53.332;6.514;2024-01-07T07:10:49;4.32;;;1.10;;
82950;SDS011;72737;53.332;6.514;2024-01-07T07:13:14;3.85;;;1.30;;
82950;SDS011;72737;53.332;6.514;2024-01-07T07:15:40;2.92;;;1.10;;
82950;SDS011;72737;53.332;6.514;2024-01-07T07:18:05;3.80;;;1.20;;
82950;SDS011;72737;53.332;6.514;2024-01-07T07:20:31;3.75;;;1.10;;
82950;SDS011;72737;53.332;6.514;2024-01-07T07:22:56;4.50;;;1.08;;
82950;SDS011;72737;53.332;6.514;2024-01-07T07:25:22;2.05;;;1.00;;
82950;SDS011;72737;53.332;6.514;2024-01-07T07:27:47;4.35;;;1.17;;
82950;SDS011;72737;53.332;6.514;2024-01-07T07:30:13;2.75;;;1.20;;
82950;SDS011;72737;53.332;6.514;2024-01-07T07:32:39;3.13;;;1.00;;
82950;SDS011;72737;53.332;6.514;2024-01-07T07:35:06;3.47;;;1.30;;
82950;SDS011;72737;53.332;6.514;2024-01-07T07:37:32;3.45;;;1.38;;
82950;SDS011;72737;53.332;6.514;2024-01-07T07:39:58;5.80;;;1.10;;
82950;SDS011;72737;53.332;6.514;2024-01-07T07:42:23;3.63;;;1.10;;
82950;SDS011;72737;53.332;6.514;2024-01-07T07:44:48;3.03;;;1.17;;
82950;SDS011;72737;53.332;6.514;2024-01-07T07:47:14;4.85;;;1.08;;
82950;SDS011;72737;53.332;6.514;2024-01-07T07:49:39;4.07;;;1.20;;
82950;SDS011;72737;53.332;6.514;2024-01-07T07:52:06;4.68;;;1.30;;
82950;SDS011;72737;53.332;6.514;2024-01-07T07:54:32;6.63;;;1.63;;
82950;SDS011;72737;53.332;6.514;2024-01-07T07:56:58;4.32;;;1.17;;
82950;SDS011;72737;53.332;6.514;2024-01-07T07:59:23;2.67;;;1.10;;
82950;SDS011;72737;53.332;6.514;2024-01-07T08:01:48;5.03;;;1.20;;
82950;SDS011;72737;53.332;6.514;2024-01-07T08:04:15;2.65;;;1.00;;
82950;SDS011;72737;53.332;6.514;2024-01-07T08:06:40;5.22;;;1.30;;
82950;SDS011;72737;53.332;6.514;2024-01-07T08:09:07;4.32;;;1.13;;
82950;SDS011;72737;53.332;6.514;2024-01-07T08:11:33;4.43;;;1.30;;
82950;SDS011;72737;53.332;6.514;2024-01-07T08:13:58;4.68;;;1.13;;
82950;SDS011;72737;53.332;6.514;2024-01-07T08:16:26;3.17;;;1.10;;
82950;SDS011;72737;53.332;6.514;2024-01-07T08:18:51;4.07;;;1.35;;
82950;SDS011;72737;53.332;6.514;2024-01-07T08:21:18;3.20;;;1.20;;
82950;SDS011;72737;53.332;6.514;2024-01-07T08:23:45;4.03;;;1.20;;
82950;SDS011;72737;53.332;6.514;2024-01-07T08:26:10;2.65;;;1.10;;
82950;SDS011;72737;53.332;6.514;2024-01-07T08:28:35;3.08;;;1.00;;
82950;SDS011;72737;53.332;6.514;2024-01-07T08:31:01;2.85;;;1.30;;
82950;SDS011;72737;53.332;6.514;2024-01-07T08:33:26;3.72;;;1.10;;
82950;SDS011;72737;53.332;6.514;2024-01-07T08:35:53;4.38;;;1.30;;
82950;SDS011;72737;53.332;6.514;2024-01-07T08:38:19;3.80;;;1.38;;
82950;SDS011;72737;53.332;6.514;2024-01-07T08:40:44;4.07;;;1.15;;
82950;SDS011;72737;53.332;6.514;2024-01-07T08:43:10;6.20;;;1.30;;
82950;SDS011;72737;53.332;6.514;2024-01-07T08:45:35;3.47;;;1.30;;
82950;SDS011;72737;53.332;6.514;2024-01-07T08:48:01;4.13;;;1.40;;
82950;SDS011;72737;53.332;6.514;2024-01-07T08:50:26;4.30;;;1.27;;
82950;SDS011;72737;53.332;6.514;2024-01-07T08:52:51;2.47;;;1.20;;
82950;SDS011;72737;53.332;6.514;2024-01-07T08:55:17;5.45;;;1.20;;
82950;SDS011;72737;53.332;6.514;2024-01-07T08:57:42;4.18;;;1.25;;
82950;SDS011;72737;53.332;6.514;2024-01-07T09:00:08;4.97;;;1.30;;
82950;SDS011;72737;53.332;6.514;2024-01-07T09:02:34;3.20;;;1.10;;
82950;SDS011;72737;53.332;6.514;2024-01-07T09:05:00;4.75;;;1.23;;
82950;SDS011;72737;53.332;6.514;2024-01-07T09:07:26;4.28;;;1.13;;
82950;SDS011;72737;53.332;6.514;2024-01-07T09:09:51;5.70;;;1.27;;
82950;SDS011;72737;53.332;6.514;2024-01-07T09:12:16;7.80;;;1.70;;
82950;SDS011;72737;53.332;6.514;2024-01-07T09:14:42;4.30;;;1.40;;
82950;SDS011;72737;53.332;6.514;2024-01-07T09:17:07;5.50;;;1.50;;
82950;SDS011;72737;53.332;6.514;2024-01-07T09:19:33;3.45;;;1.30;;
82950;SDS011;72737;53.332;6.514;2024-01-07T09:21:58;3.83;;;1.20;;
82950;SDS011;72737;53.332;6.514;2024-01-07T09:24:24;5.30;;;1.30;;
82950;SDS011;72737;53.332;6.514;2024-01-07T09:26:49;4.72;;;1.20;;
82950;SDS011;72737;53.332;6.514;2024-01-07T09:29:16;4.63;;;1.30;;
82950;SDS011;72737;53.332;6.514;2024-01-07T09:31:41;5.10;;;1.42;;
82950;SDS011;72737;53.332;6.514;2024-01-07T09:34:06;6.00;;;1.33;;
82950;SDS011;72737;53.332;6.514;2024-01-07T09:36:32;5.00;;;1.40;;
82950;SDS011;72737;53.332;6.514;2024-01-07T09:38:58;10.45;;;1.45;;
82950;SDS011;72737;53.332;6.514;2024-01-07T09:41:23;5.90;;;1.65;;
82950;SDS011;72737;53.332;6.514;2024-01-07T09:43:49;8.63;;;1.65;;
82950;SDS011;72737;53.332;6.514;2024-01-07T09:46:16;3.70;;;1.30;;
82950;SDS011;72737;53.332;6.514;2024-01-07T09:48:42;7.32;;;1.40;;
82950;SDS011;72737;53.332;6.514;2024-01-07T09:51:07;3.75;;;1.35;;
82950;SDS011;72737;53.332;6.514;2024-01-07T09:53:34;5.03;;;1.50;;
82950;SDS011;72737;53.332;6.514;2024-01-07T09:58:37;4.00;;;1.23;;
82950;SDS011;72737;53.332;6.514;2024-01-07T10:01:03;4.75;;;1.20;;
82950;SDS011;72737;53.332;6.514;2024-01-07T10:05:55;4.10;;;1.27;;
82950;SDS011;72737;53.332;6.514;2024-01-07T10:08:20;6.60;;;1.40;;
82950;SDS011;72737;53.332;6.514;2024-01-07T10:10:48;6.32;;;1.42;;
82950;SDS011;72737;53.332;6.514;2024-01-07T10:13:14;5.35;;;1.30;;
82950;SDS011;72737;53.332;6.514;2024-01-07T10:15:39;7.75;;;1.30;;
82950;SDS011;72737;53.332;6.514;2024-01-07T10:18:05;3.17;;;1.25;;
82950;SDS011;72737;53.332;6.514;2024-01-07T10:23:03;5.53;;;1.50;;
82950;SDS011;72737;53.332;6.514;2024-01-07T10:25:32;5.60;;;1.40;;
82950;SDS011;72737;53.332;6.514;2024-01-07T10:28:00;4.63;;;1.35;;
82950;SDS011;72737;53.332;6.514;2024-01-07T10:30:26;3.75;;;1.20;;
82950;SDS011;72737;53.332;6.514;2024-01-07T10:32:57;3.00;;;1.10;;
82950;SDS011;72737;53.332;6.514;2024-01-07T10:35:23;3.25;;;1.15;;
82950;SDS011;72737;53.332;6.514;2024-01-07T10:37:54;4.68;;;1.40;;
82950;SDS011;72737;53.332;6.514;2024-01-07T10:40:20;4.50;;;1.20;;
82950;SDS011;72737;53.332;6.514;2024-01-07T10:42:45;3.85;;;1.30;;
82950;SDS011;72737;53.332;6.514;2024-01-07T10:45:12;4.47;;;1.30;;
82950;SDS011;72737;53.332;6.514;2024-01-07T10:47:37;4.63;;;1.30;;
82950;SDS011;72737;53.332;6.514;2024-01-07T10:50:06;2.90;;;1.30;;
82950;SDS011;72737;53.332;6.514;2024-01-07T10:52:35;3.63;;;1.45;;
82950;SDS011;72737;53.332;6.514;2024-01-07T10:55:03;2.50;;;1.10;;
82950;SDS011;72737;53.332;6.514;2024-01-07T11:00:12;6.03;;;1.50;;
82950;SDS011;72737;53.332;6.514;2024-01-07T11:08:04;4.30;;;1.30;;
82950;SDS011;72737;53.332;6.514;2024-01-07T11:10:38;3.88;;;1.38;;
82950;SDS011;72737;53.332;6.514;2024-01-07T11:13:08;4.20;;;1.27;;
82950;SDS011;72737;53.332;6.514;2024-01-07T11:18:18;3.38;;;1.27;;
82950;SDS011;72737;53.332;6.514;2024-01-07T11:20:47;3.63;;;1.30;;
82950;SDS011;72737;53.332;6.514;2024-01-07T11:23:25;2.83;;;1.10;;
82950;SDS011;72737;53.332;6.514;2024-01-07T11:31:11;4.13;;;1.23;;
82950;SDS011;72737;53.332;6.514;2024-01-07T11:33:45;3.10;;;1.23;;
82950;SDS011;72737;53.332;6.514;2024-01-07T11:36:12;3.42;;;1.40;;
82950;SDS011;72737;53.332;6.514;2024-01-07T11:38:41;6.47;;;1.42;;
82950;SDS011;72737;53.332;6.514;2024-01-07T11:41:07;2.50;;;1.20;;
82950;SDS011;72737;53.332;6.514;2024-01-07T11:43:35;3.10;;;1.13;;
82950;SDS011;72737;53.332;6.514;2024-01-07T11:46:01;3.38;;;1.30;;
82950;SDS011;72737;53.332;6.514;2024-01-07T11:48:26;3.78;;;1.35;;
82950;SDS011;72737;53.332;6.514;2024-01-07T11:50:52;4.00;;;1.42;;
82950;SDS011;72737;53.332;6.514;2024-01-07T11:53:18;4.10;;;1.30;;
82950;SDS011;72737;53.332;6.514;2024-01-07T11:55:43;3.50;;;1.30;;
82950;SDS011;72737;53.332;6.514;2024-01-07T11:58:09;3.45;;;1.27;;
82950;SDS011;72737;53.332;6.514;2024-01-07T12:00:35;3.30;;;1.27;;
82950;SDS011;72737;53.332;6.514;2024-01-07T12:03:01;3.50;;;1.30;;
82950;SDS011;72737;53.332;6.514;2024-01-07T12:05:26;3.75;;;1.40;;
82950;SDS011;72737;53.332;6.514;2024-01-07T12:07:52;3.95;;;1.38;;
82950;SDS011;72737;53.332;6.514;2024-01-07T12:10:18;5.13;;;1.50;;
82950;SDS011;72737;53.332;6.514;2024-01-07T12:12:44;3.55;;;1.38;;
82950;SDS011;72737;53.332;6.514;2024-01-07T12:15:09;5.68;;;1.77;;
82950;SDS011;72737;53.332;6.514;2024-01-07T12:17:39;7.80;;;2.70;;
82950;SDS011;72737;53.332;6.514;2024-01-07T12:20:05;10.23;;;3.53;;
82950;SDS011;72737;53.332;6.514;2024-01-07T12:22:32;8.15;;;4.00;;
82950;SDS011;72737;53.332;6.514;2024-01-07T12:25:05;11.75;;;4.53;;
82950;SDS011;72737;53.332;6.514;2024-01-07T12:27:31;11.98;;;5.15;;
82950;SDS011;72737;53.332;6.514;2024-01-07T12:29:58;14.15;;;5.50;;
82950;SDS011;72737;53.332;6.514;2024-01-07T12:32:27;16.52;;;6.00;;
82950;SDS011;72737;53.332;6.514;2024-01-07T12:34:53;14.15;;;5.85;;
82950;SDS011;72737;53.332;6.514;2024-01-07T12:37:18;15.98;;;5.85;;
82950;SDS011;72737;53.332;6.514;2024-01-07T12:39:44;19.48;;;6.50;;
82950;SDS011;72737;53.332;6.514;2024-01-07T12:42:09;14.75;;;6.03;;
82950;SDS011;72737;53.332;6.514;2024-01-07T12:44:38;17.80;;;5.53;;
82950;SDS011;72737;53.332;6.514;2024-01-07T12:47:03;14.18;;;5.10;;
82950;SDS011;72737;53.332;6.514;2024-01-07T12:49:29;15.82;;;6.25;;
82950;SDS011;72737;53.332;6.514;2024-01-07T12:51:54;13.95;;;5.35;;
82950;SDS011;72737;53.332;6.514;2024-01-07T12:54:20;12.57;;;4.75;;
82950;SDS011;72737;53.332;6.514;2024-01-07T12:56:46;16.20;;;5.47;;
82950;SDS011;72737;53.332;6.514;2024-01-07T12:59:12;12.20;;;5.38;;
82950;SDS011;72737;53.332;6.514;2024-01-07T13:01:37;15.45;;;5.40;;
82950;SDS011;72737;53.332;6.514;2024-01-07T13:04:02;12.15;;;4.45;;
82950;SDS011;72737;53.332;6.514;2024-01-07T13:06:28;11.77;;;4.88;;
82950;SDS011;72737;53.332;6.514;2024-01-07T13:08:54;11.95;;;4.70;;
82950;SDS011;72737;53.332;6.514;2024-01-07T13:11:19;10.48;;;4.60;;
82950;SDS011;72737;53.332;6.514;2024-01-07T13:13:45;12.65;;;4.57;;
82950;SDS011;72737;53.332;6.514;2024-01-07T13:16:11;11.32;;;4.53;;
82950;SDS011;72737;53.332;6.514;2024-01-07T13:18:37;11.15;;;4.90;;
82950;SDS011;72737;53.332;6.514;2024-01-07T13:21:02;12.50;;;4.65;;
82950;SDS011;72737;53.332;6.514;2024-01-07T13:23:28;10.43;;;4.15;;
82950;SDS011;72737;53.332;6.514;2024-01-07T13:25:54;11.77;;;4.43;;
82950;SDS011;72737;53.332;6.514;2024-01-07T13:28:20;9.48;;;3.83;;
82950;SDS011;72737;53.332;6.514;2024-01-07T13:30:46;11.52;;;4.47;;
82950;SDS011;72737;53.332;6.514;2024-01-07T13:33:11;12.30;;;4.13;;
82950;SDS011;72737;53.332;6.514;2024-01-07T13:35:36;9.20;;;3.95;;
82950;SDS011;72737;53.332;6.514;2024-01-07T13:38:02;11.57;;;4.25;;
82950;SDS011;72737;53.332;6.514;2024-01-07T13:40:27;10.88;;;4.07;;
82950;SDS011;72737;53.332;6.514;2024-01-07T13:42:53;10.95;;;4.07;;
82950;SDS011;72737;53.332;6.514;2024-01-07T13:45:19;9.60;;;3.47;;
82950;SDS011;72737;53.332;6.514;2024-01-07T13:47:48;9.13;;;3.70;;
82950;SDS011;72737;53.332;6.514;2024-01-07T13:50:13;8.93;;;3.47;;
82950;SDS011;72737;53.332;6.514;2024-01-07T13:52:39;9.43;;;3.60;;
82950;SDS011;72737;53.332;6.514;2024-01-07T13:57:32;10.10;;;3.60;;
82950;SDS011;72737;53.332;6.514;2024-01-07T13:59:57;9.38;;;3.55;;
82950;SDS011;72737;53.332;6.514;2024-01-07T14:02:22;8.63;;;3.58;;
82950;SDS011;72737;53.332;6.514;2024-01-07T14:04:48;10.15;;;3.88;;
82950;SDS011;72737;53.332;6.514;2024-01-07T14:07:16;9.75;;;3.58;;
82950;SDS011;72737;53.332;6.514;2024-01-07T14:09:41;7.80;;;3.58;;
82950;SDS011;72737;53.332;6.514;2024-01-07T14:12:07;9.35;;;3.20;;
82950;SDS011;72737;53.332;6.514;2024-01-07T14:14:33;8.27;;;3.47;;
82950;SDS011;72737;53.332;6.514;2024-01-07T14:16:58;9.77;;;3.13;;
82950;SDS011;72737;53.332;6.514;2024-01-07T14:19:24;9.18;;;3.63;;
82950;SDS011;72737;53.332;6.514;2024-01-07T14:21:49;9.57;;;3.35;;
82950;SDS011;72737;53.332;6.514;2024-01-07T14:24:15;9.25;;;3.72;;
82950;SDS011;72737;53.332;6.514;2024-01-07T14:26:40;7.90;;;2.97;;
82950;SDS011;72737;53.332;6.514;2024-01-07T14:31:33;6.97;;;2.50;;
82950;SDS011;72737;53.332;6.514;2024-01-07T14:33:58;7.20;;;2.88;;
82950;SDS011;72737;53.332;6.514;2024-01-07T14:36:23;9.07;;;3.03;;
82950;SDS011;72737;53.332;6.514;2024-01-07T14:38:51;10.13;;;3.20;;
82950;SDS011;72737;53.332;6.514;2024-01-07T14:41:17;7.97;;;2.88;;
82950;SDS011;72737;53.332;6.514;2024-01-07T14:43:43;7.03;;;2.80;;
82950;SDS011;72737;53.332;6.514;2024-01-07T14:46:08;9.10;;;2.97;;
82950;SDS011;72737;53.332;6.514;2024-01-07T14:48:34;8.02;;;3.00;;
82950;SDS011;72737;53.332;6.514;2024-01-07T14:51:00;8.77;;;3.33;;
82950;SDS011;72737;53.332;6.514;2024-01-07T14:53:26;7.57;;;3.40;;
82950;SDS011;72737;53.332;6.514;2024-01-07T14:55:53;8.35;;;3.05;;
82950;SDS011;72737;53.332;6.514;2024-01-07T14:58:19;6.75;;;2.67;;
82950;SDS011;72737;53.332;6.514;2024-01-07T15:00:46;8.05;;;2.92;;
82950;SDS011;72737;53.332;6.514;2024-01-07T15:03:11;9.75;;;3.00;;
82950;SDS011;72737;53.332;6.514;2024-01-07T15:05:37;7.75;;;2.97;;
82950;SDS011;72737;53.332;6.514;2024-01-07T15:08:03;7.03;;;3.13;;